createdAt,value
2023-01-06T00:00:19.547Z,1.50
2023-01-06T00:10:54.393Z,4.10
2023-01-06T00:21:18.567Z,2.70
2023-01-06T00:31:42.762Z,2.30
2023-01-06T00:42:07.205Z,2.50
2023-01-06T00:52:31.542Z,2.90
2023-01-06T01:02:55.989Z,3.50
2023-01-06T01:13:20.190Z,4.40
2023-01-06T01:23:44.386Z,4.00
2023-01-06T01:34:09.143Z,3.60
2023-01-06T01:44:56.333Z,4.60
2023-01-06T01:55:21.444Z,2.40
2023-01-06T02:05:52.599Z,3.20
2023-01-06T02:16:23.512Z,4.90
2023-01-06T02:27:31.823Z,2.60
2023-01-06T02:38:07.461Z,3.50
2023-01-06T02:48:41.470Z,4.90
2023-01-06T02:59:09.406Z,3.60
2023-01-06T03:09:37.707Z,2.00
2023-01-06T03:20:02.167Z,1.30
2023-01-06T03:30:36.870Z,2.60
2023-01-06T03:41:08.965Z,1.50
2023-01-06T03:51:47.487Z,4.10
2023-01-06T04:02:12.214Z,4.60
2023-01-06T04:12:39.294Z,1.50
2023-01-06T04:23:03.498Z,4.50
2023-01-06T04:33:28.404Z,4.80
2023-01-06T04:43:52.596Z,3.70
2023-01-06T04:54:17.536Z,5.50
2023-01-06T05:04:47.646Z,2.90
2023-01-06T05:15:12.884Z,4.00
2023-01-06T05:25:37.161Z,2.30
2023-01-06T05:36:02.907Z,2.30
2023-01-06T05:46:27.098Z,4.00
2023-01-06T05:56:51.288Z,3.70
2023-01-06T06:07:15.524Z,2.60
2023-01-06T06:17:39.863Z,4.10
2023-01-06T06:28:04.058Z,2.50
2023-01-06T06:38:28.507Z,2.40
2023-01-06T06:48:52.748Z,5.40
2023-01-06T06:59:17.107Z,5.90
2023-01-06T07:09:41.518Z,5.00
2023-01-06T07:20:07.639Z,5.30
2023-01-06T07:30:32.084Z,5.80
2023-01-06T07:41:00.428Z,6.90
2023-01-06T07:51:24.758Z,8.70
2023-01-06T08:01:49.170Z,8.60
2023-01-06T08:12:13.514Z,4.50
2023-01-06T08:22:38.088Z,3.70
2023-01-06T08:33:02.323Z,4.50
2023-01-06T08:43:27.529Z,6.80
2023-01-06T08:53:52.711Z,5.60
2023-01-06T09:04:16.880Z,6.20
2023-01-06T09:14:41.183Z,4.50
2023-01-06T09:25:06.829Z,5.20
2023-01-06T09:35:31.146Z,10.10
2023-01-06T09:46:01.118Z,7.50
2023-01-06T09:56:26.037Z,20.00
2023-01-06T10:07:00.387Z,7.60
2023-01-06T10:17:53.449Z,14.20
2023-01-06T10:28:25.357Z,10.40
2023-01-06T10:38:52.272Z,7.30
2023-01-06T10:49:18.798Z,7.30
2023-01-06T11:00:13.702Z,9.70
2023-01-06T11:10:41.782Z,10.50
2023-01-06T11:21:10.521Z,5.90
2023-01-06T11:31:34.888Z,10.10
2023-01-06T11:42:04.921Z,15.10
2023-01-06T11:52:31.131Z,10.40
2023-01-06T12:03:06.866Z,11.50
2023-01-06T12:13:39.831Z,11.00
2023-01-06T12:24:15.365Z,10.60
2023-01-06T12:34:47.885Z,9.20
2023-01-06T12:45:15.933Z,13.50
2023-01-06T12:55:48.430Z,9.50
2023-01-06T13:06:25.942Z,9.00
2023-01-06T13:16:56.393Z,9.30
2023-01-06T13:27:39.386Z,10.30
2023-01-06T13:38:18.334Z,11.90
2023-01-06T13:48:46.818Z,9.20
2023-01-06T13:59:24.657Z,11.50
2023-01-06T14:09:50.243Z,10.80
2023-01-06T14:20:29.680Z,11.30
2023-01-06T14:31:46.406Z,12.50
2023-01-06T14:42:18.565Z,12.20
2023-01-06T14:52:49.504Z,15.90
2023-01-06T15:03:22.372Z,17.40
2023-01-06T15:13:46.798Z,24.10
2023-01-06T15:24:19.703Z,18.50
2023-01-06T15:34:46.563Z,22.20
2023-01-06T15:45:25.554Z,13.60
2023-01-06T15:55:52.623Z,22.30
2023-01-06T16:06:26.306Z,16.00
2023-01-06T16:16:50.797Z,16.50
2023-01-06T16:27:15.051Z,17.30
2023-01-06T16:37:39.486Z,17.30
2023-01-06T16:48:03.892Z,17.90
2023-01-06T16:58:29.883Z,15.70
2023-01-06T17:08:56.723Z,20.60
2023-01-06T17:19:24.780Z,14.70
2023-01-06T17:29:50.053Z,15.20
2023-01-06T17:40:17.671Z,17.10
2023-01-06T17:50:45.787Z,18.10
2023-01-06T18:01:14.226Z,19.90
2023-01-06T18:22:09.816Z,19.00
2023-01-06T18:32:36.111Z,16.00
2023-01-06T18:43:05.939Z,14.00
2023-01-06T18:53:32.853Z,12.00
2023-01-06T19:04:04.168Z,12.20
2023-01-06T19:14:32.645Z,12.20
2023-01-06T19:35:25.783Z,11.10
2023-01-06T19:45:49.986Z,13.10
2023-01-06T19:56:20.018Z,13.00
2023-01-06T20:06:44.456Z,11.10
2023-01-06T20:17:08.760Z,14.20
2023-01-06T20:27:33.814Z,15.70
2023-01-06T20:37:58.008Z,17.00
2023-01-06T20:48:22.309Z,17.70
2023-01-06T20:58:46.481Z,14.30
2023-01-06T21:09:10.696Z,15.80
2023-01-06T21:19:34.999Z,19.10
2023-01-06T21:29:59.180Z,19.50
2023-01-06T21:40:23.418Z,20.50
2023-01-06T21:50:47.636Z,20.00
2023-01-06T22:01:11.977Z,16.50
2023-01-06T22:11:37.907Z,20.70
2023-01-06T22:22:02.969Z,19.50
2023-01-06T22:32:27.833Z,20.00
2023-01-06T22:42:52.035Z,26.30
2023-01-06T22:53:16.225Z,25.70
2023-01-06T23:03:40.617Z,22.00
2023-01-06T23:14:04.846Z,20.30
2023-01-06T23:24:29.250Z,21.90
2023-01-06T23:34:53.465Z,21.30
2023-01-06T23:45:17.807Z,21.70
2023-01-06T23:55:42.020Z,19.80
